sensor_id;sensor_type;location;lat;lon;timestamp;P1;durP1;ratioP1;P2;durP2;ratioP2
45274;SDS011;31019;43.780;25.948;2023-10-08T00:04:41;39.33;;;37.05;;
45274;SDS011;31019;43.780;25.948;2023-10-08T00:14:28;33.90;;;31.52;;
45274;SDS011;31019;43.780;25.948;2023-10-08T00:17:39;32.42;;;30.23;;
45274;SDS011;31019;43.780;25.948;2023-10-08T00:24:09;39.63;;;37.17;;
45274;SDS011;31019;43.780;25.948;2023-10-08T00:34:41;79.43;;;39.03;;
45274;SDS011;31019;43.780;25.948;2023-10-08T00:37:36;40.63;;;38.28;;
45274;SDS011;31019;43.780;25.948;2023-10-08T00:40:39;34.15;;;31.95;;
45274;SDS011;31019;43.780;25.948;2023-10-08T00:43:43;37.85;;;35.55;;
45274;SDS011;31019;43.780;25.948;2023-10-08T00:47:09;37.00;;;34.65;;
45274;SDS011;31019;43.780;25.948;2023-10-08T00:53:51;38.75;;;36.55;;
45274;SDS011;31019;43.780;25.948;2023-10-08T01:01:14;33.38;;;31.27;;
45274;SDS011;31019;43.780;25.948;2023-10-08T01:04:42;38.87;;;36.07;;
45274;SDS011;31019;43.780;25.948;2023-10-08T01:07:29;44.83;;;42.22;;
45274;SDS011;31019;43.780;25.948;2023-10-08T01:14:33;38.28;;;35.88;;
45274;SDS011;31019;43.780;25.948;2023-10-08T01:17:54;40.90;;;38.40;;
45274;SDS011;31019;43.780;25.948;2023-10-08T01:27:24;39.67;;;36.40;;
45274;SDS011;31019;43.780;25.948;2023-10-08T01:30:58;34.78;;;32.58;;
45274;SDS011;31019;43.780;25.948;2023-10-08T01:47:04;48.08;;;45.13;;
45274;SDS011;31019;43.780;25.948;2023-10-08T01:53:18;36.92;;;34.72;;
45274;SDS011;31019;43.780;25.948;2023-10-08T01:56:15;40.85;;;38.35;;
45274;SDS011;31019;43.780;25.948;2023-10-08T02:09:28;40.38;;;38.15;;
45274;SDS011;31019;43.780;25.948;2023-10-08T02:12:25;40.00;;;37.70;;
45274;SDS011;31019;43.780;25.948;2023-10-08T02:18:43;35.85;;;33.95;;
45274;SDS011;31019;43.780;25.948;2023-10-08T02:31:01;32.05;;;30.25;;
45274;SDS011;31019;43.780;25.948;2023-10-08T02:34:13;42.38;;;40.08;;
45274;SDS011;31019;43.780;25.948;2023-10-08T02:37:55;35.58;;;32.70;;
45274;SDS011;31019;43.780;25.948;2023-10-08T02:44:12;34.97;;;32.85;;
45274;SDS011;31019;43.780;25.948;2023-10-08T02:47:15;37.78;;;35.60;;
45274;SDS011;31019;43.780;25.948;2023-10-08T02:50:18;34.25;;;32.22;;
45274;SDS011;31019;43.780;25.948;2023-10-08T02:53:16;38.42;;;35.95;;
45274;SDS011;31019;43.780;25.948;2023-10-08T03:02:54;41.10;;;38.70;;
45274;SDS011;31019;43.780;25.948;2023-10-08T03:06:04;37.10;;;34.90;;
45274;SDS011;31019;43.780;25.948;2023-10-08T03:09:05;38.67;;;36.38;;
45274;SDS011;31019;43.780;25.948;2023-10-08T03:12:02;35.08;;;32.58;;
45274;SDS011;31019;43.780;25.948;2023-10-08T03:18:43;42.70;;;40.20;;
45274;SDS011;31019;43.780;25.948;2023-10-08T03:21:40;35.83;;;33.72;;
45274;SDS011;31019;43.780;25.948;2023-10-08T03:24:48;40.30;;;37.88;;
45274;SDS011;31019;43.780;25.948;2023-10-08T03:27:56;41.00;;;38.50;;
45274;SDS011;31019;43.780;25.948;2023-10-08T03:34:36;38.85;;;36.45;;
45274;SDS011;31019;43.780;25.948;2023-10-08T03:38:59;41.60;;;38.67;;
45274;SDS011;31019;43.780;25.948;2023-10-08T03:41:25;38.72;;;36.50;;
45274;SDS011;31019;43.780;25.948;2023-10-08T03:44:17;36.55;;;34.60;;
45274;SDS011;31019;43.780;25.948;2023-10-08T03:47:07;34.00;;;31.55;;
45274;SDS011;31019;43.780;25.948;2023-10-08T03:53:46;32.47;;;30.02;;
45274;SDS011;31019;43.780;25.948;2023-10-08T03:56:22;38.20;;;35.70;;
45274;SDS011;31019;43.780;25.948;2023-10-08T03:59:50;32.45;;;30.45;;
45274;SDS011;31019;43.780;25.948;2023-10-08T04:02:54;31.15;;;29.15;;
45274;SDS011;31019;43.780;25.948;2023-10-08T04:06:19;35.15;;;32.95;;
45274;SDS011;31019;43.780;25.948;2023-10-08T04:09:29;30.73;;;28.83;;
45274;SDS011;31019;43.780;25.948;2023-10-08T04:13:04;31.27;;;29.38;;
45274;SDS011;31019;43.780;25.948;2023-10-08T04:16:31;33.10;;;30.15;;
45274;SDS011;31019;43.780;25.948;2023-10-08T04:19:38;29.05;;;27.13;;
45274;SDS011;31019;43.780;25.948;2023-10-08T04:30:03;26.70;;;24.60;;
45274;SDS011;31019;43.780;25.948;2023-10-08T04:32:35;26.55;;;24.55;;
45274;SDS011;31019;43.780;25.948;2023-10-08T04:35:46;27.17;;;25.17;;
45274;SDS011;31019;43.780;25.948;2023-10-08T04:39:07;26.10;;;24.20;;
45274;SDS011;31019;43.780;25.948;2023-10-08T04:42:11;24.88;;;22.98;;
45274;SDS011;31019;43.780;25.948;2023-10-08T04:45:29;26.98;;;24.88;;
45274;SDS011;31019;43.780;25.948;2023-10-08T04:48:49;25.17;;;23.27;;
45274;SDS011;31019;43.780;25.948;2023-10-08T04:52:13;27.65;;;25.23;;
45274;SDS011;31019;43.780;25.948;2023-10-08T04:55:19;25.75;;;23.75;;
45274;SDS011;31019;43.780;25.948;2023-10-08T04:58:18;26.10;;;24.10;;
45274;SDS011;31019;43.780;25.948;2023-10-08T05:01:43;25.02;;;23.23;;
45274;SDS011;31019;43.780;25.948;2023-10-08T05:04:40;25.15;;;23.25;;
45274;SDS011;31019;43.780;25.948;2023-10-08T05:07:36;24.27;;;22.38;;
45274;SDS011;31019;43.780;25.948;2023-10-08T05:13:55;24.50;;;22.60;;
45274;SDS011;31019;43.780;25.948;2023-10-08T05:20:58;24.52;;;22.63;;
45274;SDS011;31019;43.780;25.948;2023-10-08T05:24:00;26.08;;;24.08;;
45274;SDS011;31019;43.780;25.948;2023-10-08T05:27:16;23.38;;;21.58;;
45274;SDS011;31019;43.780;25.948;2023-10-08T05:30:59;23.77;;;21.98;;
45274;SDS011;31019;43.780;25.948;2023-10-08T05:33:55;27.02;;;24.30;;
45274;SDS011;31019;43.780;25.948;2023-10-08T05:36:57;25.50;;;23.63;;
45274;SDS011;31019;43.780;25.948;2023-10-08T05:39:58;25.10;;;23.20;;
45274;SDS011;31019;43.780;25.948;2023-10-08T05:42:45;26.08;;;24.27;;
45274;SDS011;31019;43.780;25.948;2023-10-08T05:45:26;25.90;;;24.10;;
45274;SDS011;31019;43.780;25.948;2023-10-08T05:47:55;27.05;;;25.05;;
45274;SDS011;31019;43.780;25.948;2023-10-08T05:50:39;25.98;;;23.98;;
45274;SDS011;31019;43.780;25.948;2023-10-08T05:53:08;24.92;;;23.10;;
45274;SDS011;31019;43.780;25.948;2023-10-08T05:55:54;26.77;;;24.88;;
45274;SDS011;31019;43.780;25.948;2023-10-08T05:58:42;27.35;;;25.25;;
45274;SDS011;31019;43.780;25.948;2023-10-08T06:01:25;26.05;;;24.25;;
45274;SDS011;31019;43.780;25.948;2023-10-08T06:04:05;27.77;;;25.88;;
45274;SDS011;31019;43.780;25.948;2023-10-08T06:06:46;27.02;;;24.92;;
45274;SDS011;31019;43.780;25.948;2023-10-08T06:09:23;27.85;;;25.67;;
45274;SDS011;31019;43.780;25.948;2023-10-08T06:12:00;27.02;;;25.02;;
45274;SDS011;31019;43.780;25.948;2023-10-08T06:14:37;25.85;;;23.65;;
45274;SDS011;31019;43.780;25.948;2023-10-08T06:17:32;27.15;;;25.15;;
45274;SDS011;31019;43.780;25.948;2023-10-08T06:20:16;27.35;;;25.25;;
45274;SDS011;31019;43.780;25.948;2023-10-08T06:22:50;27.73;;;25.63;;
45274;SDS011;31019;43.780;25.948;2023-10-08T06:25:20;27.42;;;25.20;;
45274;SDS011;31019;43.780;25.948;2023-10-08T06:27:49;27.55;;;25.45;;
45274;SDS011;31019;43.780;25.948;2023-10-08T06:30:22;27.70;;;25.50;;
45274;SDS011;31019;43.780;25.948;2023-10-08T06:32:50;27.60;;;25.52;;
45274;SDS011;31019;43.780;25.948;2023-10-08T06:35:18;27.70;;;25.60;;
45274;SDS011;31019;43.780;25.948;2023-10-08T06:37:51;26.98;;;24.67;;
45274;SDS011;31019;43.780;25.948;2023-10-08T06:40:21;26.15;;;24.00;;
45274;SDS011;31019;43.780;25.948;2023-10-08T06:43:20;27.60;;;25.23;;
45274;SDS011;31019;43.780;25.948;2023-10-08T06:45:51;25.88;;;23.77;;
45274;SDS011;31019;43.780;25.948;2023-10-08T06:48:19;25.98;;;23.67;;
45274;SDS011;31019;43.780;25.948;2023-10-08T06:50:50;24.98;;;23.08;;
45274;SDS011;31019;43.780;25.948;2023-10-08T06:53:22;26.98;;;24.98;;
45274;SDS011;31019;43.780;25.948;2023-10-08T06:55:49;26.23;;;24.10;;
45274;SDS011;31019;43.780;25.948;2023-10-08T06:58:21;25.27;;;23.15;;
45274;SDS011;31019;43.780;25.948;2023-10-08T07:00:48;23.58;;;21.67;;
45274;SDS011;31019;43.780;25.948;2023-10-08T07:03:18;27.45;;;25.00;;
45274;SDS011;31019;43.780;25.948;2023-10-08T07:05:46;26.80;;;24.70;;
45274;SDS011;31019;43.780;25.948;2023-10-08T07:08:23;34.97;;;23.70;;
45274;SDS011;31019;43.780;25.948;2023-10-08T07:10:50;27.13;;;24.92;;
45274;SDS011;31019;43.780;25.948;2023-10-08T07:13:18;25.42;;;23.45;;
45274;SDS011;31019;43.780;25.948;2023-10-08T07:15:48;24.52;;;22.63;;
45274;SDS011;31019;43.780;25.948;2023-10-08T07:18:16;25.83;;;23.83;;
45274;SDS011;31019;43.780;25.948;2023-10-08T07:20:50;27.05;;;24.75;;
45274;SDS011;31019;43.780;25.948;2023-10-08T07:23:20;25.75;;;23.67;;
45274;SDS011;31019;43.780;25.948;2023-10-08T07:25:53;26.50;;;24.50;;
45274;SDS011;31019;43.780;25.948;2023-10-08T07:28:24;26.88;;;24.77;;
45274;SDS011;31019;43.780;25.948;2023-10-08T07:30:52;47.00;;;35.17;;
45274;SDS011;31019;43.780;25.948;2023-10-08T07:33:21;26.85;;;24.65;;
45274;SDS011;31019;43.780;25.948;2023-10-08T07:35:50;27.35;;;25.13;;
45274;SDS011;31019;43.780;25.948;2023-10-08T07:38:22;27.20;;;25.10;;
45274;SDS011;31019;43.780;25.948;2023-10-08T07:40:52;28.15;;;26.05;;
45274;SDS011;31019;43.780;25.948;2023-10-08T07:43:20;28.45;;;26.35;;
45274;SDS011;31019;43.780;25.948;2023-10-08T07:45:47;27.00;;;24.90;;
45274;SDS011;31019;43.780;25.948;2023-10-08T07:48:14;30.30;;;27.13;;
45274;SDS011;31019;43.780;25.948;2023-10-08T07:50:43;28.40;;;26.10;;
45274;SDS011;31019;43.780;25.948;2023-10-08T07:53:12;28.25;;;25.95;;
45274;SDS011;31019;43.780;25.948;2023-10-08T07:55:50;27.02;;;24.92;;
45274;SDS011;31019;43.780;25.948;2023-10-08T07:58:17;39.78;;;36.88;;
45274;SDS011;31019;43.780;25.948;2023-10-08T08:00:45;37.80;;;35.22;;
45274;SDS011;31019;43.780;25.948;2023-10-08T08:05:49;27.60;;;25.40;;
45274;SDS011;31019;43.780;25.948;2023-10-08T08:08:24;25.35;;;23.35;;
45274;SDS011;31019;43.780;25.948;2023-10-08T08:10:52;25.33;;;23.25;;
45274;SDS011;31019;43.780;25.948;2023-10-08T08:13:23;25.05;;;23.05;;
45274;SDS011;31019;43.780;25.948;2023-10-08T08:15:53;26.08;;;23.98;;
45274;SDS011;31019;43.780;25.948;2023-10-08T08:18:23;24.90;;;22.90;;
45274;SDS011;31019;43.780;25.948;2023-10-08T08:20:59;25.90;;;23.80;;
45274;SDS011;31019;43.780;25.948;2023-10-08T08:23:28;24.92;;;22.83;;
45274;SDS011;31019;43.780;25.948;2023-10-08T08:25:58;26.70;;;24.60;;
45274;SDS011;31019;43.780;25.948;2023-10-08T08:31:20;27.98;;;25.67;;
45274;SDS011;31019;43.780;25.948;2023-10-08T08:33:48;27.27;;;25.08;;
45274;SDS011;31019;43.780;25.948;2023-10-08T08:36:26;28.75;;;26.55;;
45274;SDS011;31019;43.780;25.948;2023-10-08T08:38:54;27.50;;;25.27;;
45274;SDS011;31019;43.780;25.948;2023-10-08T08:41:21;26.15;;;23.95;;
45274;SDS011;31019;43.780;25.948;2023-10-08T08:43:50;25.08;;;23.10;;
45274;SDS011;31019;43.780;25.948;2023-10-08T08:46:30;25.73;;;23.63;;
45274;SDS011;31019;43.780;25.948;2023-10-08T08:49:01;26.95;;;24.75;;
45274;SDS011;31019;43.780;25.948;2023-10-08T08:51:31;26.80;;;24.50;;
45274;SDS011;31019;43.780;25.948;2023-10-08T08:54:00;26.55;;;24.25;;
45274;SDS011;31019;43.780;25.948;2023-10-08T08:56:32;26.42;;;24.23;;
45274;SDS011;31019;43.780;25.948;2023-10-08T08:59:01;28.42;;;25.67;;
45274;SDS011;31019;43.780;25.948;2023-10-08T09:01:31;27.58;;;24.75;;
45274;SDS011;31019;43.780;25.948;2023-10-08T09:04:01;25.15;;;22.77;;
45274;SDS011;31019;43.780;25.948;2023-10-08T09:06:32;29.00;;;26.00;;
45274;SDS011;31019;43.780;25.948;2023-10-08T09:11:47;25.63;;;23.23;;
45274;SDS011;31019;43.780;25.948;2023-10-08T09:14:17;26.50;;;24.30;;
45274;SDS011;31019;43.780;25.948;2023-10-08T09:16:46;25.35;;;23.15;;
45274;SDS011;31019;43.780;25.948;2023-10-08T09:19:15;25.38;;;23.17;;
45274;SDS011;31019;43.780;25.948;2023-10-08T09:21:45;25.17;;;22.88;;
45274;SDS011;31019;43.780;25.948;2023-10-08T09:24:28;26.70;;;23.90;;
45274;SDS011;31019;43.780;25.948;2023-10-08T09:26:55;25.90;;;23.60;;
45274;SDS011;31019;43.780;25.948;2023-10-08T09:29:23;26.58;;;24.33;;
45274;SDS011;31019;43.780;25.948;2023-10-08T09:31:53;26.52;;;24.02;;
45274;SDS011;31019;43.780;25.948;2023-10-08T09:34:22;25.17;;;22.77;;
45274;SDS011;31019;43.780;25.948;2023-10-08T09:36:54;25.40;;;23.10;;
45274;SDS011;31019;43.780;25.948;2023-10-08T09:39:22;25.27;;;23.08;;
45274;SDS011;31019;43.780;25.948;2023-10-08T09:41:52;25.45;;;23.35;;
45274;SDS011;31019;43.780;25.948;2023-10-08T09:44:20;27.30;;;24.38;;
45274;SDS011;31019;43.780;25.948;2023-10-08T09:46:51;26.20;;;24.00;;
45274;SDS011;31019;43.780;25.948;2023-10-08T09:49:20;27.77;;;25.48;;
45274;SDS011;31019;43.780;25.948;2023-10-08T09:52:09;27.05;;;24.70;;
45274;SDS011;31019;43.780;25.948;2023-10-08T09:54:41;28.23;;;25.83;;
45274;SDS011;31019;43.780;25.948;2023-10-08T09:57:10;28.17;;;25.77;;
45274;SDS011;31019;43.780;25.948;2023-10-08T09:59:37;44.88;;;30.13;;
45274;SDS011;31019;43.780;25.948;2023-10-08T10:02:06;28.23;;;25.85;;
45274;SDS011;31019;43.780;25.948;2023-10-08T10:04:35;25.50;;;23.30;;
45274;SDS011;31019;43.780;25.948;2023-10-08T10:07:11;25.48;;;23.30;;
45274;SDS011;31019;43.780;25.948;2023-10-08T10:09:42;27.13;;;24.83;;
45274;SDS011;31019;43.780;25.948;2023-10-08T10:12:10;25.77;;;23.63;;
45274;SDS011;31019;43.780;25.948;2023-10-08T10:14:41;26.10;;;23.80;;
45274;SDS011;31019;43.780;25.948;2023-10-08T10:17:09;26.00;;;23.80;;
45274;SDS011;31019;43.780;25.948;2023-10-08T10:19:40;25.85;;;23.55;;
45274;SDS011;31019;43.780;25.948;2023-10-08T10:22:12;26.40;;;24.10;;
45274;SDS011;31019;43.780;25.948;2023-10-08T10:24:41;28.10;;;25.52;;
45274;SDS011;31019;43.780;25.948;2023-10-08T10:27:11;26.30;;;24.00;;
45274;SDS011;31019;43.780;25.948;2023-10-08T10:29:39;28.45;;;25.90;;
45274;SDS011;31019;43.780;25.948;2023-10-08T10:32:09;27.23;;;24.83;;
45274;SDS011;31019;43.780;25.948;2023-10-08T10:34:38;27.00;;;24.80;;
45274;SDS011;31019;43.780;25.948;2023-10-08T10:37:06;26.50;;;24.30;;
45274;SDS011;31019;43.780;25.948;2023-10-08T10:39:50;25.35;;;23.15;;
45274;SDS011;31019;43.780;25.948;2023-10-08T10:42:18;26.20;;;23.90;;
45274;SDS011;31019;43.780;25.948;2023-10-08T10:44:47;27.20;;;24.80;;
45274;SDS011;31019;43.780;25.948;2023-10-08T10:47:16;25.83;;;23.63;;
45274;SDS011;31019;43.780;25.948;2023-10-08T10:49:52;27.33;;;25.13;;
45274;SDS011;31019;43.780;25.948;2023-10-08T10:52:41;25.98;;;23.88;;
45274;SDS011;31019;43.780;25.948;2023-10-08T10:55:12;26.30;;;24.10;;
45274;SDS011;31019;43.780;25.948;2023-10-08T10:57:48;25.65;;;23.48;;
45274;SDS011;31019;43.780;25.948;2023-10-08T11:00:20;28.23;;;25.42;;
45274;SDS011;31019;43.780;25.948;2023-10-08T11:03:12;31.13;;;26.85;;
45274;SDS011;31019;43.780;25.948;2023-10-08T11:05:41;26.65;;;23.90;;
45274;SDS011;31019;43.780;25.948;2023-10-08T11:08:15;25.98;;;23.85;;
45274;SDS011;31019;43.780;25.948;2023-10-08T11:10:47;25.40;;;23.20;;
45274;SDS011;31019;43.780;25.948;2023-10-08T11:13:16;25.95;;;23.85;;
45274;SDS011;31019;43.780;25.948;2023-10-08T11:15:45;25.73;;;23.63;;
45274;SDS011;31019;43.780;25.948;2023-10-08T11:18:15;25.90;;;23.60;;
45274;SDS011;31019;43.780;25.948;2023-10-08T11:20:44;26.27;;;23.98;;
45274;SDS011;31019;43.780;25.948;2023-10-08T11:23:11;26.20;;;23.85;;
45274;SDS011;31019;43.780;25.948;2023-10-08T11:25:56;27.02;;;24.65;;
45274;SDS011;31019;43.780;25.948;2023-10-08T11:28:27;26.45;;;24.35;;
45274;SDS011;31019;43.780;25.948;2023-10-08T11:30:54;24.65;;;22.20;;
45274;SDS011;31019;43.780;25.948;2023-10-08T11:33:24;25.17;;;23.08;;
45274;SDS011;31019;43.780;25.948;2023-10-08T11:35:58;24.70;;;22.70;;
45274;SDS011;31019;43.780;25.948;2023-10-08T11:38:27;27.05;;;24.95;;
45274;SDS011;31019;43.780;25.948;2023-10-08T11:41:10;26.05;;;23.85;;
45274;SDS011;31019;43.780;25.948;2023-10-08T11:43:46;27.77;;;25.35;;
45274;SDS011;31019;43.780;25.948;2023-10-08T11:46:19;27.05;;;24.95;;
45274;SDS011;31019;43.780;25.948;2023-10-08T11:48:47;27.17;;;24.27;;
45274;SDS011;31019;43.780;25.948;2023-10-08T11:51:15;24.92;;;22.80;;
45274;SDS011;31019;43.780;25.948;2023-10-08T11:53:43;25.17;;;23.02;;
45274;SDS011;31019;43.780;25.948;2023-10-08T11:56:12;27.02;;;24.88;;
45274;SDS011;31019;43.780;25.948;2023-10-08T11:58:40;23.63;;;21.63;;
45274;SDS011;31019;43.780;25.948;2023-10-08T12:01:10;26.05;;;23.95;;
45274;SDS011;31019;43.780;25.948;2023-10-08T12:03:41;26.85;;;24.75;;
45274;SDS011;31019;43.780;25.948;2023-10-08T12:06:09;25.88;;;23.77;;
45274;SDS011;31019;43.780;25.948;2023-10-08T12:08:40;25.63;;;23.33;;
45274;SDS011;31019;43.780;25.948;2023-10-08T12:11:11;27.17;;;24.98;;
45274;SDS011;31019;43.780;25.948;2023-10-08T12:13:39;33.28;;;30.88;;
45274;SDS011;31019;43.780;25.948;2023-10-08T12:16:12;35.17;;;32.78;;
45274;SDS011;31019;43.780;25.948;2023-10-08T12:18:44;33.70;;;31.38;;
45274;SDS011;31019;43.780;25.948;2023-10-08T12:21:14;32.05;;;29.80;;
45274;SDS011;31019;43.780;25.948;2023-10-08T12:23:42;35.20;;;32.75;;
45274;SDS011;31019;43.780;25.948;2023-10-08T12:26:12;33.15;;;30.85;;
45274;SDS011;31019;43.780;25.948;2023-10-08T12:28:44;34.00;;;31.60;;
45274;SDS011;31019;43.780;25.948;2023-10-08T12:31:13;34.70;;;32.30;;
45274;SDS011;31019;43.780;25.948;2023-10-08T12:33:41;32.47;;;30.20;;
45274;SDS011;31019;43.780;25.948;2023-10-08T12:36:09;35.70;;;33.30;;
45274;SDS011;31019;43.780;25.948;2023-10-08T12:38:37;38.28;;;35.67;;
45274;SDS011;31019;43.780;25.948;2023-10-08T12:41:06;35.72;;;33.13;;
45274;SDS011;31019;43.780;25.948;2023-10-08T12:43:45;36.58;;;34.03;;
45274;SDS011;31019;43.780;25.948;2023-10-08T12:46:17;37.08;;;34.47;;
45274;SDS011;31019;43.780;25.948;2023-10-08T12:48:49;39.05;;;36.42;;
45274;SDS011;31019;43.780;25.948;2023-10-08T12:51:26;39.30;;;36.50;;
45274;SDS011;31019;43.780;25.948;2023-10-08T12:53:57;35.90;;;33.40;;
45274;SDS011;31019;43.780;25.948;2023-10-08T12:56:29;36.28;;;33.78;;
45274;SDS011;31019;43.780;25.948;2023-10-08T12:59:17;37.50;;;34.80;;
45274;SDS011;31019;43.780;25.948;2023-10-08T13:05:49;35.28;;;32.83;;
45274;SDS011;31019;43.780;25.948;2023-10-08T13:11:49;37.97;;;35.33;;
45274;SDS011;31019;43.780;25.948;2023-10-08T13:14:38;35.80;;;33.22;;
45274;SDS011;31019;43.780;25.948;2023-10-08T13:17:35;37.60;;;34.90;;
45274;SDS011;31019;43.780;25.948;2023-10-08T13:20:31;37.05;;;34.35;;
45274;SDS011;31019;43.780;25.948;2023-10-08T13:26:09;36.15;;;33.45;;
45274;SDS011;31019;43.780;25.948;2023-10-08T13:29:16;38.70;;;35.85;;
45274;SDS011;31019;43.780;25.948;2023-10-08T13:38:15;27.88;;;25.48;;
45274;SDS011;31019;43.780;25.948;2023-10-08T13:40:51;25.58;;;23.48;;
45274;SDS011;31019;43.780;25.948;2023-10-08T13:43:28;24.80;;;22.70;;
45274;SDS011;31019;43.780;25.948;2023-10-08T13:46:02;25.92;;;23.73;;
45274;SDS011;31019;43.780;25.948;2023-10-08T13:48:33;26.77;;;24.58;;
45274;SDS011;31019;43.780;25.948;2023-10-08T13:51:01;27.40;;;25.20;;
45274;SDS011;31019;43.780;25.948;2023-10-08T13:53:29;27.30;;;23.50;;
45274;SDS011;31019;43.780;25.948;2023-10-08T13:56:07;26.38;;;24.35;;
45274;SDS011;31019;43.780;25.948;2023-10-08T13:58:45;28.60;;;26.27;;
45274;SDS011;31019;43.780;25.948;2023-10-08T14:04:40;28.38;;;26.23;;
45274;SDS011;31019;43.780;25.948;2023-10-08T14:07:10;28.45;;;25.95;;
45274;SDS011;31019;43.780;25.948;2023-10-08T14:09:41;28.95;;;26.42;;
45274;SDS011;31019;43.780;25.948;2023-10-08T14:18:51;28.98;;;26.67;;
45274;SDS011;31019;43.780;25.948;2023-10-08T14:28:18;27.30;;;25.20;;
45274;SDS011;31019;43.780;25.948;2023-10-08T14:34:35;27.42;;;25.08;;
45274;SDS011;31019;43.780;25.948;2023-10-08T14:37:36;25.02;;;23.13;;
45274;SDS011;31019;43.780;25.948;2023-10-08T14:40:46;26.80;;;24.25;;
45274;SDS011;31019;43.780;25.948;2023-10-08T14:44:00;27.05;;;23.58;;
45274;SDS011;31019;43.780;25.948;2023-10-08T14:46:47;23.90;;;22.00;;
45274;SDS011;31019;43.780;25.948;2023-10-08T14:49:26;25.08;;;23.08;;
45274;SDS011;31019;43.780;25.948;2023-10-08T14:52:25;23.52;;;21.73;;
45274;SDS011;31019;43.780;25.948;2023-10-08T14:55:11;25.10;;;22.73;;
45274;SDS011;31019;43.780;25.948;2023-10-08T14:58:05;24.90;;;23.00;;
45274;SDS011;31019;43.780;25.948;2023-10-08T15:00:54;25.33;;;23.02;;
45274;SDS011;31019;43.780;25.948;2023-10-08T15:12:28;22.48;;;20.67;;
45274;SDS011;31019;43.780;25.948;2023-10-08T15:15:07;23.20;;;21.50;;
45274;SDS011;31019;43.780;25.948;2023-10-08T15:17:54;23.00;;;21.10;;
45274;SDS011;31019;43.780;25.948;2023-10-08T15:22:48;22.10;;;20.30;;
45274;SDS011;31019;43.780;25.948;2023-10-08T15:25:17;21.23;;;19.63;;
45274;SDS011;31019;43.780;25.948;2023-10-08T15:27:48;22.00;;;20.30;;
45274;SDS011;31019;43.780;25.948;2023-10-08T15:30:22;23.67;;;21.98;;
45274;SDS011;31019;43.780;25.948;2023-10-08T15:32:51;22.00;;;20.40;;
45274;SDS011;31019;43.780;25.948;2023-10-08T15:40:57;24.00;;;22.30;;
45274;SDS011;31019;43.780;25.948;2023-10-08T15:43:25;22.98;;;21.45;;
45274;SDS011;31019;43.780;25.948;2023-10-08T15:46:02;25.20;;;23.50;;
45274;SDS011;31019;43.780;25.948;2023-10-08T15:48:30;24.30;;;22.80;;
45274;SDS011;31019;43.780;25.948;2023-10-08T15:50:59;23.63;;;22.02;;
45274;SDS011;31019;43.780;25.948;2023-10-08T15:53:32;25.63;;;23.40;;
45274;SDS011;31019;43.780;25.948;2023-10-08T15:56:09;24.58;;;22.88;;
45274;SDS011;31019;43.780;25.948;2023-10-08T15:58:47;25.00;;;23.10;;
45274;SDS011;31019;43.780;25.948;2023-10-08T16:01:18;25.55;;;23.75;;
45274;SDS011;31019;43.780;25.948;2023-10-08T16:03:45;27.33;;;25.33;;
45274;SDS011;31019;43.780;25.948;2023-10-08T16:06:11;30.77;;;28.88;;
45274;SDS011;31019;43.780;25.948;2023-10-08T16:08:40;31.40;;;29.40;;
45274;SDS011;31019;43.780;25.948;2023-10-08T16:11:08;28.02;;;26.33;;
45274;SDS011;31019;43.780;25.948;2023-10-08T16:13:37;24.42;;;22.83;;
45274;SDS011;31019;43.780;25.948;2023-10-08T16:16:06;25.33;;;23.70;;
45274;SDS011;31019;43.780;25.948;2023-10-08T16:19:08;23.20;;;21.50;;
45274;SDS011;31019;43.780;25.948;2023-10-08T16:21:50;24.38;;;22.50;;
45274;SDS011;31019;43.780;25.948;2023-10-08T16:24:32;21.25;;;19.85;;
45274;SDS011;31019;43.780;25.948;2023-10-08T16:27:12;25.20;;;22.80;;
45274;SDS011;31019;43.780;25.948;2023-10-08T16:29:51;27.23;;;21.17;;
45274;SDS011;31019;43.780;25.948;2023-10-08T16:32:20;23.88;;;22.40;;
45274;SDS011;31019;43.780;25.948;2023-10-08T16:34:49;26.15;;;24.55;;
45274;SDS011;31019;43.780;25.948;2023-10-08T16:37:24;26.35;;;24.38;;
45274;SDS011;31019;43.780;25.948;2023-10-08T16:40:06;24.77;;;23.17;;
45274;SDS011;31019;43.780;25.948;2023-10-08T16:42:42;25.88;;;24.17;;
45274;SDS011;31019;43.780;25.948;2023-10-08T16:45:09;25.20;;;23.60;;
45274;SDS011;31019;43.780;25.948;2023-10-08T16:47:36;25.05;;;23.38;;
45274;SDS011;31019;43.780;25.948;2023-10-08T16:50:05;29.83;;;22.42;;
45274;SDS011;31019;43.780;25.948;2023-10-08T16:52:32;22.40;;;20.90;;
45274;SDS011;31019;43.780;25.948;2023-10-08T16:54:59;23.98;;;22.38;;
45274;SDS011;31019;43.780;25.948;2023-10-08T16:57:26;22.00;;;20.50;;
45274;SDS011;31019;43.780;25.948;2023-10-08T17:00:06;21.52;;;20.00;;
45274;SDS011;31019;43.780;25.948;2023-10-08T17:02:37;23.98;;;22.45;;
45274;SDS011;31019;43.780;25.948;2023-10-08T17:05:16;23.90;;;22.23;;
45274;SDS011;31019;43.780;25.948;2023-10-08T17:07:43;54.75;;;23.83;;
45274;SDS011;31019;43.780;25.948;2023-10-08T17:13:27;25.63;;;23.55;;
45274;SDS011;31019;43.780;25.948;2023-10-08T17:16:07;24.52;;;22.77;;
45274;SDS011;31019;43.780;25.948;2023-10-08T17:31:28;25.90;;;24.10;;
45274;SDS011;31019;43.780;25.948;2023-10-08T17:34:09;26.27;;;24.38;;
45274;SDS011;31019;43.780;25.948;2023-10-08T17:36:42;27.55;;;25.55;;
45274;SDS011;31019;43.780;25.948;2023-10-08T17:49:25;23.90;;;22.10;;
45274;SDS011;31019;43.780;25.948;2023-10-08T17:52:02;24.30;;;22.50;;
45274;SDS011;31019;43.780;25.948;2023-10-08T17:55:48;23.90;;;22.10;;
45274;SDS011;31019;43.780;25.948;2023-10-08T17:58:24;23.75;;;21.95;;
45274;SDS011;31019;43.780;25.948;2023-10-08T18:04:45;25.30;;;23.60;;
45274;SDS011;31019;43.780;25.948;2023-10-08T18:07:14;24.83;;;23.05;;
45274;SDS011;31019;43.780;25.948;2023-10-08T18:09:49;46.40;;;23.20;;
45274;SDS011;31019;43.780;25.948;2023-10-08T18:12:24;24.40;;;22.70;;
45274;SDS011;31019;43.780;25.948;2023-10-08T18:14:52;23.90;;;22.10;;
45274;SDS011;31019;43.780;25.948;2023-10-08T18:17:25;22.33;;;20.63;;
45274;SDS011;31019;43.780;25.948;2023-10-08T18:20:01;24.80;;;23.00;;
45274;SDS011;31019;43.780;25.948;2023-10-08T18:22:46;22.38;;;20.67;;
45274;SDS011;31019;43.780;25.948;2023-10-08T18:25:45;24.42;;;22.73;;
45274;SDS011;31019;43.780;25.948;2023-10-08T18:28:16;26.70;;;23.05;;
45274;SDS011;31019;43.780;25.948;2023-10-08T18:33:15;22.93;;;21.23;;
45274;SDS011;31019;43.780;25.948;2023-10-08T18:35:43;24.27;;;22.48;;
45274;SDS011;31019;43.780;25.948;2023-10-08T18:38:12;23.55;;;21.95;;
45274;SDS011;31019;43.780;25.948;2023-10-08T18:40:42;25.10;;;23.40;;
45274;SDS011;31019;43.780;25.948;2023-10-08T18:43:09;24.80;;;23.10;;
45274;SDS011;31019;43.780;25.948;2023-10-08T18:45:52;25.80;;;24.00;;
45274;SDS011;31019;43.780;25.948;2023-10-08T18:48:47;28.73;;;26.63;;
45274;SDS011;31019;43.780;25.948;2023-10-08T18:51:16;26.60;;;24.70;;
45274;SDS011;31019;43.780;25.948;2023-10-08T18:53:48;25.95;;;24.25;;
45274;SDS011;31019;43.780;25.948;2023-10-08T18:59:53;26.92;;;25.05;;